createdAt,value
2018-04-01T00:01:52.290Z,4.73
2018-04-01T00:04:19.287Z,3.43
2018-04-01T00:06:46.284Z,3.60
2018-04-01T00:09:13.283Z,2.50
2018-04-01T00:11:40.261Z,3.50
2018-04-01T00:14:07.241Z,3.40
2018-04-01T00:16:34.986Z,3.90
2018-04-01T00:19:01.969Z,3.90
2018-04-01T00:21:28.965Z,4.70
2018-04-01T00:23:55.959Z,5.10
2018-04-01T00:26:23.702Z,4.10
2018-04-01T00:28:50.685Z,4.47
2018-04-01T00:31:17.669Z,4.33
2018-04-01T00:33:44.657Z,4.57
2018-04-01T00:36:12.393Z,4.40
2018-04-01T00:38:39.399Z,5.23
2018-04-01T00:41:06.415Z,3.67
2018-04-01T00:43:33.415Z,3.60
2018-04-01T00:46:00.396Z,3.80
2018-04-01T00:48:27.362Z,3.60
2018-04-01T00:50:54.381Z,4.13
2018-04-01T00:53:21.605Z,4.00
2018-04-01T00:55:48.602Z,4.23
2018-04-01T00:58:16.395Z,4.53
2018-04-01T01:00:43.394Z,5.93
2018-04-01T01:03:11.239Z,4.13
2018-04-01T01:05:38.229Z,5.00
2018-04-01T01:08:05.984Z,4.50
2018-04-01T01:10:33.017Z,4.10
2018-04-01T01:12:59.986Z,4.40
2018-04-01T01:15:27.736Z,5.43
2018-04-01T01:17:54.706Z,6.40
2018-04-01T01:20:22.473Z,6.57
2018-04-01T01:22:49.474Z,6.30
2018-04-01T01:25:16.446Z,7.43
2018-04-01T01:27:44.209Z,6.73
2018-04-01T01:30:12.983Z,6.47
2018-04-01T01:32:39.970Z,6.67
2018-04-01T01:35:06.958Z,5.80
2018-04-01T01:37:33.973Z,6.03
2018-04-01T01:40:00.960Z,5.30
2018-04-01T01:42:27.954Z,5.83
2018-04-01T01:44:54.937Z,5.27
2018-04-01T01:47:21.921Z,5.50
2018-04-01T01:49:48.894Z,5.37
2018-04-01T01:52:15.894Z,4.70
2018-04-01T01:54:42.871Z,4.83
2018-04-01T01:57:10.627Z,5.13
2018-04-01T01:59:38.381Z,4.90
2018-04-01T02:02:05.378Z,4.77
2018-04-01T02:04:32.346Z,5.57
2018-04-01T02:06:59.310Z,5.17
2018-04-01T02:09:26.293Z,5.70
2018-04-01T02:11:54.037Z,5.27
2018-04-01T02:14:21.017Z,5.10
2018-04-01T02:16:48.008Z,4.97
2018-04-01T02:19:14.987Z,5.23
2018-04-01T02:21:42.722Z,5.20
2018-04-01T02:24:09.706Z,5.23
2018-04-01T02:26:37.449Z,5.40
2018-04-01T02:29:04.439Z,5.83
2018-04-01T02:31:31.494Z,4.90
2018-04-01T02:33:58.409Z,7.07
2018-04-01T02:36:26.150Z,6.17
2018-04-01T02:38:53.140Z,6.80
2018-04-01T02:41:20.114Z,8.40
2018-04-01T02:43:47.098Z,6.30
2018-04-01T02:46:14.067Z,6.17
2018-04-01T02:48:41.060Z,7.17
2018-04-01T02:51:08.034Z,7.70
2018-04-01T02:53:35.014Z,8.10
2018-04-01T02:56:02.017Z,8.23
2018-04-01T02:58:29.034Z,8.40
2018-04-01T03:00:56.022Z,9.07
2018-04-01T03:03:22.985Z,9.40
2018-04-01T03:05:50.739Z,8.70
2018-04-01T03:08:18.469Z,9.70
2018-04-01T03:10:45.461Z,8.17
2018-04-01T03:13:13.198Z,9.97
2018-04-01T03:15:40.194Z,10.00
2018-04-01T03:18:07.177Z,10.20
2018-04-01T03:20:34.184Z,11.23
2018-04-01T03:23:01.158Z,11.03
2018-04-01T03:25:28.142Z,11.43
2018-04-01T03:27:55.111Z,12.07
2018-04-01T03:30:22.114Z,11.37
2018-04-01T03:32:49.097Z,12.50
2018-04-01T03:35:16.854Z,12.23
2018-04-01T03:37:44.590Z,12.67
2018-04-01T03:40:11.582Z,12.70
2018-04-01T03:42:38.577Z,13.40
2018-04-01T03:45:05.550Z,12.73
2018-04-01T03:47:33.309Z,12.73
2018-04-01T03:50:00.277Z,12.23
2018-04-01T03:52:28.026Z,13.37
2018-04-01T03:54:56.786Z,14.60
2018-04-01T03:57:23.774Z,13.77
2018-04-01T03:59:51.524Z,13.27
2018-04-01T04:02:19.281Z,13.43
2018-04-01T04:04:47.030Z,17.30
2018-04-01T04:07:14.018Z,14.03
2018-04-01T04:09:41.776Z,13.63
2018-04-01T04:12:09.534Z,14.50
2018-04-01T04:14:38.197Z,12.73
2018-04-01T04:17:05.187Z,13.90
2018-04-01T04:19:32.246Z,14.20
2018-04-01T04:21:59.249Z,13.33
2018-04-01T04:24:26.222Z,14.53
2018-04-01T04:26:54.012Z,13.90
2018-04-01T04:29:21.014Z,13.67
2018-04-01T04:31:48.000Z,14.13
2018-04-01T04:34:14.997Z,14.30
2018-04-01T04:36:41.982Z,14.30
2018-04-01T04:39:08.986Z,15.30
2018-04-01T04:41:35.961Z,13.57
2018-04-01T04:44:03.713Z,14.07
2018-04-01T04:46:30.758Z,14.10
2018-04-01T04:48:57.746Z,14.80
2018-04-01T04:51:24.826Z,14.90
2018-04-01T04:53:51.816Z,14.43
2018-04-01T04:56:19.561Z,14.67
2018-04-01T04:58:47.310Z,13.10
2018-04-01T05:01:14.287Z,14.47
2018-04-01T05:03:42.037Z,14.70
2018-04-01T05:06:09.014Z,14.90
2018-04-01T05:08:36.014Z,13.80
2018-04-01T05:11:02.990Z,14.73
2018-04-01T05:13:30.723Z,14.10
2018-04-01T05:15:57.709Z,15.93
2018-04-01T05:18:25.459Z,16.20
2018-04-01T05:20:53.217Z,14.90
2018-04-01T05:23:20.961Z,18.53
2018-04-01T05:25:47.952Z,17.60
2018-04-01T05:28:15.696Z,20.27
2018-04-01T05:30:42.686Z,15.87
2018-04-01T05:33:09.679Z,16.57
2018-04-01T05:35:36.673Z,15.20
2018-04-01T05:38:03.649Z,14.10
2018-04-01T05:40:30.638Z,14.97
2018-04-01T05:42:58.369Z,13.23
2018-04-01T05:45:25.362Z,11.43
2018-04-01T05:47:53.097Z,11.73
2018-04-01T05:50:20.103Z,12.77
2018-04-01T05:52:47.072Z,12.07
2018-04-01T05:55:14.063Z,11.17
2018-04-01T05:57:41.802Z,12.30
2018-04-01T06:00:08.774Z,12.03
2018-04-01T06:02:36.530Z,12.47
2018-04-01T06:05:04.279Z,13.27
2018-04-01T06:07:31.271Z,13.20
2018-04-01T06:09:58.246Z,14.20
2018-04-01T06:12:25.229Z,16.73
2018-04-01T06:14:52.990Z,16.93
2018-04-01T06:17:20.750Z,17.67
2018-04-01T06:19:47.721Z,15.97
2018-04-01T06:22:15.476Z,16.47
2018-04-01T06:24:43.209Z,14.27
2018-04-01T06:27:10.199Z,14.43
2018-04-01T06:29:37.189Z,16.97
2018-04-01T06:32:04.176Z,15.77
2018-04-01T06:34:31.917Z,17.00
2018-04-01T06:36:58.941Z,16.37
2018-04-01T06:39:25.917Z,17.27
2018-04-01T06:41:52.914Z,17.37
2018-04-01T06:44:19.896Z,17.67
2018-04-01T06:46:46.866Z,19.03
2018-04-01T06:49:14.620Z,19.30
2018-04-01T06:51:41.610Z,22.77
2018-04-01T06:54:08.646Z,18.57
2018-04-01T06:56:36.385Z,16.00
2018-04-01T06:59:03.377Z,13.00
2018-04-01T07:01:30.355Z,11.10
2018-04-01T07:03:57.342Z,10.77
2018-04-01T07:06:25.081Z,9.40
2018-04-01T07:08:52.065Z,11.20
2018-04-01T07:11:19.048Z,10.40
2018-04-01T07:13:46.071Z,9.07
2018-04-01T07:16:13.033Z,9.97
2018-04-01T07:18:40.014Z,10.13
2018-04-01T07:21:06.990Z,8.37
2018-04-01T07:23:34.738Z,8.60
2018-04-01T07:26:02.548Z,6.93
2018-04-01T07:29:49.142Z,5.93
2018-04-01T07:32:16.145Z,5.50
2018-04-01T07:34:43.125Z,5.10
2018-04-01T07:37:10.875Z,9.50
2018-04-01T07:39:38.633Z,11.63
2018-04-01T07:42:05.601Z,7.43
2018-04-01T07:44:33.349Z,9.70
2018-04-01T07:47:01.090Z,8.13
2018-04-01T07:49:28.075Z,8.73
2018-04-01T07:51:55.818Z,10.47
2018-04-01T07:54:22.865Z,11.20
2018-04-01T07:56:49.836Z,13.20
2018-04-01T07:59:17.577Z,12.60
2018-04-01T08:01:44.577Z,13.70
2018-04-01T08:04:11.554Z,13.07
2018-04-01T08:06:38.546Z,15.30
2018-04-01T08:09:05.541Z,25.13
2018-04-01T08:11:32.549Z,16.83
2018-04-01T08:13:59.565Z,22.67
2018-04-01T08:16:27.322Z,19.37
2018-04-01T08:18:54.292Z,21.10
2018-04-01T08:21:22.064Z,22.47
2018-04-01T08:23:49.050Z,22.43
2018-04-01T08:26:16.050Z,27.90
2018-04-01T08:28:43.777Z,20.70
2018-04-01T08:31:10.769Z,22.90
2018-04-01T08:33:37.753Z,22.07
2018-04-01T08:36:04.741Z,22.83
2018-04-01T08:38:32.573Z,22.70
2018-04-01T08:40:59.588Z,21.77
2018-04-01T08:43:26.718Z,22.17
2018-04-01T08:45:53.712Z,23.40
2018-04-01T08:48:20.705Z,23.43
2018-04-01T08:50:48.454Z,27.20
2018-04-01T08:53:15.475Z,27.30
2018-04-01T08:55:42.441Z,29.77
2018-04-01T08:58:09.425Z,28.17
2018-04-01T09:00:36.424Z,25.33
2018-04-01T09:03:03.419Z,29.17
2018-04-01T09:05:30.402Z,29.20
2018-04-01T09:07:57.448Z,29.17
2018-04-01T09:10:24.914Z,29.00
2018-04-01T09:12:51.924Z,26.27
2018-04-01T09:15:18.901Z,36.93
2018-04-01T09:17:45.897Z,29.47
2018-04-01T09:20:13.676Z,48.03
2018-04-01T09:22:40.687Z,33.90
2018-04-01T09:25:07.669Z,32.40
2018-04-01T09:27:34.703Z,29.43
2018-04-01T09:30:02.585Z,33.87
2018-04-01T09:32:29.592Z,25.40
2018-04-01T09:34:56.578Z,25.90
2018-04-01T09:37:23.611Z,34.70
2018-04-01T09:39:51.371Z,41.77
2018-04-01T09:42:19.170Z,26.23
2018-04-01T09:44:46.199Z,21.27
2018-04-01T09:47:13.209Z,20.63
2018-04-01T09:49:40.215Z,22.27
2018-04-01T09:52:07.194Z,21.40
2018-04-01T09:54:34.185Z,21.47
2018-04-01T09:57:01.199Z,23.47
2018-04-01T09:59:28.201Z,21.60
2018-04-01T10:02:00.671Z,28.00
2018-04-01T10:04:28.192Z,46.33
2018-04-01T10:06:56.432Z,31.10
2018-04-01T10:09:23.926Z,23.87
2018-04-01T10:11:52.161Z,20.43
2018-04-01T10:14:19.638Z,25.00
2018-04-01T10:16:47.112Z,60.17
2018-04-01T10:19:14.586Z,36.90
2018-04-01T10:21:42.833Z,26.27
2018-04-01T10:24:10.312Z,55.97
2018-04-01T10:26:38.615Z,28.37
2018-04-01T10:29:06.880Z,40.67
2018-04-01T10:31:35.145Z,32.37
2018-04-01T10:34:02.629Z,31.23
2018-04-01T10:36:30.122Z,31.20
2018-04-01T10:38:57.614Z,31.37
2018-04-01T10:41:25.101Z,33.10
2018-04-01T10:43:52.604Z,30.30
2018-04-01T10:46:20.101Z,31.97
2018-04-01T10:48:48.405Z,37.27
2018-04-01T10:51:15.925Z,30.73
2018-04-01T10:53:43.690Z,35.67
2018-04-01T10:56:10.886Z,34.43
2018-04-01T10:58:37.875Z,37.47
2018-04-01T11:01:04.873Z,35.00
2018-04-01T11:03:31.866Z,35.27
2018-04-01T11:05:59.217Z,37.77
2018-04-01T11:08:26.948Z,33.40
2018-04-01T11:10:54.959Z,38.10
2018-04-01T11:13:21.973Z,34.57
2018-04-01T11:15:48.983Z,29.27
2018-04-01T11:18:16.734Z,27.40
2018-04-01T11:20:44.505Z,29.20
2018-04-01T11:23:12.260Z,27.10
2018-04-01T11:25:39.249Z,25.00
2018-04-01T11:28:06.238Z,35.63
2018-04-01T11:30:33.210Z,26.20
2018-04-01T11:33:00.964Z,28.77
2018-04-01T11:35:27.933Z,29.30
2018-04-01T11:37:54.941Z,29.10
2018-04-01T11:40:21.929Z,30.80
2018-04-01T11:42:49.698Z,35.93
2018-04-01T11:45:16.759Z,36.50
2018-04-01T11:47:43.744Z,32.80
2018-04-01T11:50:10.743Z,33.13
2018-04-01T11:52:37.738Z,33.30
2018-04-01T11:55:04.717Z,43.00
2018-04-01T11:57:32.471Z,34.03
2018-04-01T11:59:59.757Z,42.90
2018-04-01T12:02:26.770Z,33.70
2018-04-01T12:04:54.637Z,38.60
2018-04-01T12:07:21.606Z,33.33
2018-04-01T12:09:48.613Z,44.47
2018-04-01T12:12:15.582Z,79.60
2018-04-01T12:14:43.464Z,64.73
2018-04-01T12:17:10.461Z,42.00
2018-04-01T12:19:37.453Z,40.17
2018-04-01T12:22:05.194Z,34.30
2018-04-01T12:24:32.209Z,39.87
2018-04-01T12:26:59.193Z,37.27
2018-04-01T12:29:26.183Z,32.80
2018-04-01T12:31:53.186Z,69.43
2018-04-01T12:57:48.765Z,41.03
2018-04-01T13:00:16.529Z,44.53
2018-04-01T13:02:43.527Z,43.47
2018-04-01T13:05:10.516Z,44.90
2018-04-01T13:07:37.538Z,30.13
2018-04-01T13:10:04.525Z,32.87
2018-04-01T13:12:32.277Z,34.17
2018-04-01T13:14:59.329Z,44.47
2018-04-01T13:17:27.098Z,44.43
2018-04-01T13:21:41.042Z,41.20
2018-04-01T13:24:08.843Z,37.10
2018-04-01T13:26:35.865Z,45.93
2018-04-01T13:29:02.876Z,41.60
2018-04-01T13:31:29.849Z,41.63
2018-04-01T13:33:56.854Z,40.90
2018-04-01T13:36:23.824Z,51.30
2018-04-01T13:38:50.812Z,40.17
2018-04-01T13:41:18.557Z,36.17
2018-04-01T13:43:45.608Z,36.03
2018-04-01T13:46:14.260Z,57.40
2018-04-01T13:48:41.281Z,31.53
2018-04-01T13:51:08.259Z,38.03
2018-04-01T13:53:35.246Z,34.70
2018-04-01T13:56:02.994Z,30.50
2018-04-01T13:58:30.049Z,32.13
2018-04-01T14:00:57.797Z,35.10
2018-04-01T14:03:24.790Z,38.00
2018-04-01T14:05:51.765Z,31.20
2018-04-01T14:08:18.769Z,31.70
2018-04-01T14:10:45.770Z,32.17
2018-04-01T14:13:12.764Z,26.83
2018-04-01T14:15:40.517Z,26.20
2018-04-01T14:18:09.283Z,29.63
2018-04-01T14:20:36.274Z,26.30
2018-04-01T14:23:03.260Z,28.40
2018-04-01T14:25:30.261Z,31.30
2018-04-01T14:27:57.271Z,29.60
2018-04-01T14:30:24.268Z,30.77
2018-04-01T14:32:51.350Z,33.13
2018-04-01T14:35:18.343Z,47.33
2018-04-01T14:37:46.093Z,42.30
2018-04-01T14:40:13.861Z,39.03
2018-04-01T14:42:41.626Z,37.60
2018-04-01T14:45:09.390Z,38.37
2018-04-01T14:47:37.147Z,38.67
2018-04-01T14:50:04.149Z,39.50
2018-04-01T14:52:32.139Z,45.83
2018-04-01T14:54:59.134Z,46.60
2018-04-01T14:57:26.981Z,46.07
2018-04-01T14:59:53.971Z,45.70
2018-04-01T15:02:20.942Z,48.93
2018-04-01T15:04:47.986Z,43.30
2018-04-01T15:07:15.014Z,38.60
2018-04-01T15:09:42.001Z,39.97
2018-04-01T15:12:09.762Z,37.13
2018-04-01T15:14:36.738Z,30.40
2018-04-01T15:17:04.493Z,53.53
2018-04-01T15:19:32.255Z,28.27
2018-04-01T15:21:59.266Z,32.53
2018-04-01T15:24:26.237Z,30.33
2018-04-01T15:26:53.236Z,74.33
2018-04-01T15:29:20.289Z,31.23
2018-04-01T15:31:47.269Z,31.80
2018-04-01T15:34:14.291Z,13.67
2018-04-01T15:36:41.434Z,14.03
2018-04-01T15:39:09.503Z,11.57
2018-04-01T15:41:36.512Z,12.50
2018-04-01T15:44:04.273Z,13.23
2018-04-01T15:46:31.273Z,15.50
2018-04-01T15:48:59.290Z,14.03
2018-04-01T15:51:26.277Z,14.87
2018-04-01T15:53:53.269Z,16.43
2018-04-01T15:56:20.245Z,14.07
2018-04-01T15:58:48.001Z,14.13
2018-04-01T16:01:15.860Z,16.43
2018-04-01T16:03:43.753Z,14.47
2018-04-01T16:06:10.777Z,17.87
2018-04-01T16:08:37.789Z,16.23
2018-04-01T16:11:04.764Z,17.07
2018-04-01T16:13:31.762Z,16.90
2018-04-01T16:15:58.733Z,17.60
2018-04-01T16:18:25.756Z,17.47
2018-04-01T16:20:52.749Z,18.43
2018-04-01T16:23:19.751Z,17.60
2018-04-01T16:25:46.745Z,17.10
2018-04-01T16:28:13.724Z,17.43
2018-04-01T16:30:40.745Z,19.73
2018-04-01T16:33:07.741Z,20.60
2018-04-01T16:35:34.716Z,19.03
2018-04-01T16:38:01.719Z,23.37
2018-04-01T16:40:28.701Z,23.07
2018-04-01T16:42:55.692Z,21.47
2018-04-01T16:45:23.489Z,23.47
2018-04-01T16:47:50.474Z,24.70
2018-04-01T16:50:17.460Z,21.87
2018-04-01T16:52:44.517Z,23.07
2018-04-01T16:55:11.480Z,28.07
2018-04-01T16:57:38.505Z,24.37
2018-04-01T17:00:05.495Z,25.50
2018-04-01T17:02:32.490Z,24.40
2018-04-01T17:05:00.233Z,23.23
2018-04-01T17:07:27.245Z,23.93
2018-04-01T17:09:54.221Z,25.00
2018-04-01T17:12:21.213Z,24.43
2018-04-01T17:14:48.208Z,23.27
2018-04-01T17:17:15.185Z,26.03
2018-04-01T17:19:42.947Z,24.27
2018-04-01T17:22:10.682Z,27.47
2018-04-01T17:24:37.690Z,23.10
2018-04-01T17:27:04.680Z,24.40
2018-04-01T17:29:31.656Z,23.80
2018-04-01T17:31:59.410Z,26.83
2018-04-01T17:34:27.161Z,31.20
2018-04-01T17:36:54.199Z,24.70
2018-04-01T17:39:21.209Z,24.17
2018-04-01T17:41:48.204Z,26.27
2018-04-01T17:44:15.235Z,26.63
2018-04-01T17:46:42.220Z,24.80
2018-04-01T17:49:10.084Z,30.90
2018-04-01T17:51:37.849Z,29.20
2018-04-01T17:54:05.903Z,25.50
2018-04-01T17:56:34.690Z,23.80
2018-04-01T17:59:02.475Z,29.17
2018-04-01T18:01:30.222Z,30.63
2018-04-01T18:03:57.998Z,31.23
2018-04-01T18:06:25.000Z,25.87
2018-04-01T18:08:51.997Z,27.70
2018-04-01T18:11:19.778Z,30.83
2018-04-01T18:13:46.821Z,40.90
2018-04-01T18:16:13.854Z,30.90
2018-04-01T18:18:40.860Z,39.93
2018-04-01T18:21:07.867Z,38.00
2018-04-01T18:23:34.883Z,34.60
2018-04-01T18:26:01.877Z,35.30
2018-04-01T18:28:28.902Z,30.93
2018-04-01T18:30:56.659Z,37.67
2018-04-01T18:33:24.438Z,33.53
2018-04-01T18:35:51.451Z,55.77
2018-04-01T18:38:18.474Z,32.37
2018-04-01T18:40:45.462Z,25.97
2018-04-01T18:43:13.324Z,32.03
2018-04-01T18:45:41.085Z,30.43
2018-04-01T18:48:08.057Z,29.77
2018-04-01T18:50:35.840Z,35.20
2018-04-01T18:53:02.813Z,33.93
2018-04-01T18:55:29.795Z,32.73
2018-04-01T18:57:57.557Z,34.27
2018-04-01T19:00:25.317Z,36.70
2018-04-01T19:02:52.290Z,34.40
2018-04-01T19:05:19.313Z,37.30
2018-04-01T19:07:48.065Z,41.70
2018-04-01T19:10:15.356Z,35.57
2018-04-01T19:12:43.113Z,41.73
2018-04-01T19:15:10.093Z,38.80
2018-04-01T19:17:37.780Z,40.03
2018-04-01T19:20:05.237Z,35.73
2018-04-01T19:22:32.730Z,37.40
2018-04-01T19:25:01.024Z,41.53
2018-04-01T19:27:29.253Z,46.30
2018-04-01T19:29:56.756Z,42.93
2018-04-01T19:32:24.262Z,41.20
2018-04-01T19:34:51.765Z,66.17
2018-04-01T19:37:19.308Z,42.27
2018-04-01T19:39:46.785Z,63.07
2018-04-01T19:42:14.274Z,55.33
2018-04-01T19:44:42.541Z,50.17
2018-04-01T19:47:10.801Z,52.20
2018-04-01T19:49:38.309Z,56.23
2018-04-01T19:52:05.773Z,60.13
2018-04-01T19:54:33.269Z,61.10
2018-04-01T19:57:00.759Z,63.30
2018-04-01T19:59:28.278Z,67.33
2018-04-01T20:01:55.767Z,65.60
2018-04-01T20:04:23.992Z,72.37
2018-04-01T20:06:51.500Z,78.90
2018-04-01T20:09:19.721Z,75.30
2018-04-01T20:11:47.229Z,82.70
2018-04-01T20:14:15.541Z,92.50
2018-04-01T20:16:43.038Z,119.80
2018-04-01T20:19:10.613Z,87.30
2018-04-01T20:21:38.849Z,82.13
2018-04-01T20:24:06.334Z,109.87
2018-04-01T20:26:33.806Z,90.20
2018-04-01T20:29:01.273Z,90.77
2018-04-01T20:31:30.052Z,103.73
2018-04-01T20:33:57.617Z,106.50
2018-04-01T20:36:26.893Z,112.63
2018-04-01T20:38:54.365Z,92.03
2018-04-01T20:41:21.845Z,94.73
2018-04-01T20:43:49.353Z,87.03
2018-04-01T20:46:16.849Z,96.60
2018-04-01T20:48:45.113Z,92.67
2018-04-01T20:51:12.601Z,93.03
2018-04-01T20:53:40.089Z,94.03
2018-04-01T20:56:07.582Z,88.03
2018-04-01T20:58:35.066Z,97.27
2018-04-01T21:01:03.365Z,98.17
2018-04-01T21:03:30.850Z,129.70
2018-04-01T21:05:58.341Z,105.13
2018-04-01T21:08:25.892Z,106.20
2018-04-01T21:10:53.378Z,107.40
2018-04-01T21:13:21.650Z,109.77
2018-04-01T21:15:50.947Z,94.87
2018-04-01T21:18:19.221Z,106.57
2018-04-01T21:20:46.713Z,103.23
2018-04-01T21:23:14.193Z,107.03
2018-04-01T21:25:41.673Z,104.80
2018-04-01T21:28:09.166Z,118.03
2018-04-01T21:30:37.400Z,114.03
2018-04-01T21:33:04.881Z,129.90
2018-04-01T21:35:32.372Z,121.53
2018-04-01T21:38:00.615Z,140.10
2018-04-01T21:40:28.088Z,132.50
2018-04-01T21:42:55.573Z,135.03
2018-04-01T21:45:23.108Z,130.80
2018-04-01T21:47:51.349Z,130.90
2018-04-01T21:50:18.870Z,130.47
2018-04-01T21:52:46.349Z,140.23
2018-04-01T21:55:13.833Z,145.90
2018-04-01T21:57:41.311Z,144.03
2018-04-01T22:00:08.979Z,141.30
2018-04-01T22:02:38.317Z,140.20
2018-04-01T22:05:05.822Z,140.40
2018-04-01T22:07:33.439Z,144.73
2018-04-01T22:10:00.913Z,163.97
2018-04-01T22:12:28.413Z,161.83
2018-04-01T22:14:55.877Z,147.57
2018-04-01T22:17:24.140Z,153.37
2018-04-01T22:19:52.414Z,145.03
2018-04-01T22:22:19.914Z,149.90
2018-04-01T22:24:47.433Z,154.20
2018-04-01T22:27:14.920Z,145.83
2018-04-01T22:29:43.153Z,151.43
2018-04-01T22:32:10.621Z,136.30
2018-04-01T22:34:38.107Z,140.30
2018-04-01T22:37:06.351Z,150.67
2018-04-01T22:39:33.824Z,136.40
2018-04-01T22:42:03.093Z,137.57
2018-04-01T22:44:30.561Z,147.43
2018-04-01T22:46:58.025Z,147.20
2018-04-01T22:49:25.517Z,270.40
2018-04-01T22:51:53.768Z,154.33
2018-04-01T22:54:21.264Z,148.40
2018-04-01T22:56:48.775Z,150.57
2018-04-01T22:59:16.239Z,151.67
2018-04-01T23:01:43.709Z,156.17
2018-04-01T23:04:11.205Z,141.50
2018-04-01T23:06:38.685Z,146.03
2018-04-01T23:09:06.161Z,146.37
2018-04-01T23:11:33.641Z,145.13
2018-04-01T23:14:01.110Z,131.80
2018-04-01T23:16:29.363Z,145.37
2018-04-01T23:18:56.850Z,131.63
2018-04-01T23:21:25.090Z,134.47
2018-04-01T23:23:52.562Z,142.80
2018-04-01T23:26:20.042Z,149.07
2018-04-01T23:28:48.273Z,141.63
2018-04-01T23:31:15.745Z,140.03
2018-04-01T23:33:43.234Z,139.87
2018-04-01T23:36:11.495Z,148.00
2018-04-01T23:38:38.965Z,132.80
2018-04-01T23:41:07.225Z,140.83
2018-04-01T23:43:34.689Z,135.97
2018-04-01T23:46:03.950Z,134.73
2018-04-01T23:48:31.491Z,143.23
2018-04-01T23:51:00.745Z,145.00
2018-04-01T23:53:28.235Z,133.17
2018-04-01T23:55:55.712Z,133.60
2018-04-01T23:58:23.191Z,139.10
